Time;durP1;ratioP1;P1;durP2;ratioP2;P2;SDS_P1;SDS_P2;PMS_P1;PMS_P2;Temp;Humidity;BMP_temperature;BMP_pressure;BME280_temperature;BME280_humidity;BME280_pressure;Samples;Min_cycle;Max_cycle;Signal;HPM_P1;HPM_P2
2022/10/14 00:02:12;;;;;;;27.38;12.57;;;18.90;89.20;;;19.03;49.96;99058.09;5122050;27;20043;-76
2022/10/14 00:04:38;;;;;;;19.45;12.18;;;18.90;89.40;;;19.09;50.13;99063.13;5064562;27;20128;-76
2022/10/14 00:07:04;;;;;;;18.05;11.57;;;18.90;89.60;;;19.07;50.00;99065.41;5072837;27;20047;-76
2022/10/14 00:09:30;;;;;;;20.83;12.38;;;18.90;89.30;;;19.01;50.47;99060.41;5124766;27;20118;-76
2022/10/14 00:11:57;;;;;;;17.55;11.45;;;18.80;89.50;;;19.04;50.08;99057.00;5106864;27;20100;-76
2022/10/14 00:14:23;;;;;;;21.45;12.75;;;18.80;89.40;;;19.02;50.13;99056.50;5109781;27;20488;-76
2022/10/14 00:16:52;;;;;;;18.20;11.38;;;18.80;89.40;;;19.03;50.39;99056.19;5090826;28;20100;-76
2022/10/14 00:19:18;;;;;;;21.15;12.13;;;18.80;89.30;;;19.02;50.19;99054.56;5076143;27;20043;-76
2022/10/14 00:21:44;;;;;;;21.80;13.27;;;18.80;89.30;;;19.00;50.29;99053.25;5060372;27;20061;-76
2022/10/14 00:24:11;;;;;;;20.73;12.13;;;18.80;89.30;;;19.03;50.17;99050.69;5087548;27;20127;-76
2022/10/14 00:26:38;;;;;;;19.95;12.25;;;18.90;89.40;;;18.93;50.50;99047.44;5085602;27;20118;-76
2022/10/14 00:29:11;;;;;;;20.58;11.10;;;18.80;89.50;;;19.01;50.26;99046.66;5093294;27;20391;-76
2022/10/14 00:31:37;;;;;;;22.48;12.30;;;18.80;89.50;;;19.00;50.13;99045.03;5078016;28;20047;-76
2022/10/14 00:34:04;;;;;;;21.48;11.27;;;18.80;89.50;;;19.02;50.05;99045.50;5060525;28;20122;-76
2022/10/14 00:36:30;;;;;;;18.23;11.40;;;18.80;89.40;;;19.01;50.29;99049.41;5099526;28;20043;-76
2022/10/14 00:38:56;;;;;;;18.75;10.68;;;18.90;89.40;;;19.04;50.35;99043.25;5106913;28;20050;-76
2022/10/14 00:41:31;;;;;;;20.05;10.75;;;18.80;89.50;;;19.03;50.03;99036.13;5074988;28;20482;-75
2022/10/14 00:44:27;;;;;;;18.15;10.95;;;18.80;89.50;;;18.97;50.29;99037.41;5086582;28;20036;-76
2022/10/14 00:46:53;;;;;;;17.92;11.38;;;18.70;89.70;;;18.98;50.32;99041.78;5106589;28;20571;-75
2022/10/14 00:49:32;;;;;;;16.75;10.73;;;18.80;89.60;;;18.99;50.44;99041.47;5055158;28;20117;-75
2022/10/14 00:52:10;;;;;;;19.58;12.50;;;18.80;89.50;;;18.98;50.25;99036.28;5078186;28;20035;-75
2022/10/14 00:54:46;;;;;;;24.65;12.30;;;18.80;89.50;;;19.02;49.96;99031.75;5100808;28;20114;-75
2022/10/14 00:57:12;;;;;;;15.63;9.90;;;18.80;89.30;;;19.02;50.07;99032.56;5104751;28;20048;-75
2022/10/14 00:59:38;;;;;;;18.48;11.25;;;18.80;89.60;;;19.01;50.10;99036.47;5075296;28;20041;-75
2022/10/14 01:02:04;;;;;;;21.52;11.90;;;18.70;89.50;;;18.99;50.25;99029.66;5073546;28;20043;-75
2022/10/14 01:04:31;;;;;;;18.58;11.65;;;18.80;89.40;;;19.02;50.28;99029.00;5103151;28;20413;-75
2022/10/14 01:07:10;;;;;;;16.17;11.43;;;18.80;89.40;;;19.02;49.96;99031.75;5085962;28;20371;-75
2022/10/14 01:09:59;;;;;;;17.55;10.48;;;18.80;88.90;;;19.01;49.98;99027.41;5104516;28;20035;-75
2022/10/14 01:12:35;;;;;;;20.95;11.63;;;18.90;89.00;;;18.93;50.29;99030.94;5090167;28;20078;-76
2022/10/14 01:15:34;;;;;;;18.40;12.25;;;18.80;89.30;;;18.97;50.32;99026.44;5093135;28;20126;-76
2022/10/14 01:18:32;;;;;;;18.60;11.30;;;18.80;89.50;;;18.97;50.22;99021.72;5089793;28;20039;-76
2022/10/14 01:21:39;;;;;;;19.45;11.85;;;18.80;89.30;;;18.95;50.12;99021.25;5112483;28;20062;-76
2022/10/14 01:24:31;;;;;;;19.58;10.48;;;18.80;89.40;;;18.98;50.08;99019.78;5069748;28;20061;-76
2022/10/14 01:27:24;;;;;;;14.95;9.52;;;18.80;89.30;;;18.95;50.23;99018.50;5110821;28;20048;-76
2022/10/14 01:30:12;;;;;;;22.50;11.25;;;18.80;89.40;;;18.96;49.87;99016.56;5096179;27;20438;-75
2022/10/14 01:32:43;;;;;;;20.92;11.25;;;18.70;89.40;;;18.98;50.15;99017.03;5079523;27;20376;-76
2022/10/14 01:35:50;;;;;;;17.27;11.25;;;18.70;89.50;;;18.94;50.33;99018.84;5097062;27;20088;-76
2022/10/14 01:38:28;;;;;;;18.13;11.27;;;18.80;89.50;;;18.93;50.31;99011.69;5123947;27;20537;-76
2022/10/14 01:40:56;;;;;;;14.68;10.30;;;18.80;89.30;;;18.97;50.41;99007.19;5079031;27;20058;-76
2022/10/14 01:43:24;;;;;;;16.77;10.85;;;18.80;88.90;;;18.89;50.32;99005.25;5089188;27;20042;-75
2022/10/14 01:45:50;;;;;;;21.52;11.23;;;18.80;89.30;;;18.90;50.38;99007.66;5070398;27;20036;-75
2022/10/14 01:48:18;;;;;;;16.92;10.65;;;18.70;89.40;;;18.96;50.21;99005.59;5109373;27;20055;-75
2022/10/14 01:50:45;;;;;;;16.80;11.65;;;18.80;89.50;;;18.95;50.28;99004.75;5073814;27;20070;-75
2022/10/14 01:53:17;;;;;;;17.98;11.07;;;18.80;89.50;;;18.92;50.08;99004.59;5065256;27;20480;-75
2022/10/14 01:55:45;;;;;;;19.30;10.70;;;18.80;89.00;;;18.94;50.21;99003.16;5105896;27;20058;-75
2022/10/14 01:58:13;;;;;;;15.52;10.60;;;18.80;88.90;;;18.96;50.03;99008.34;5073753;27;20040;-75
2022/10/14 02:00:41;;;;;;;19.25;11.57;;;18.80;89.10;;;18.94;50.48;99007.84;5075409;28;20506;-75
2022/10/14 02:03:10;;;;;;;17.98;10.40;;;18.80;89.60;;;18.93;50.30;98993.28;5091415;27;20088;-75
2022/10/14 02:05:42;;;;;;;17.60;11.32;;;18.70;89.60;;;18.94;50.09;99002.34;5092027;27;20039;-75
2022/10/14 02:08:31;;;;;;;17.05;11.00;;;18.70;89.40;;;18.95;50.09;98993.75;5105746;27;20039;-75
2022/10/14 02:11:14;;;;;;;19.33;11.35;;;18.70;89.30;;;18.92;50.25;98994.41;5094075;27;20043;-75
2022/10/14 02:14:27;;;;;;;16.55;10.82;;;18.80;89.00;;;18.94;50.13;98991.34;5076887;27;20352;-75
2022/10/14 02:17:11;;;;;;;19.52;10.85;;;18.80;89.30;;;18.89;50.44;98997.00;5109533;27;20035;-75
2022/10/14 02:19:54;;;;;;;16.40;10.45;;;18.80;89.10;;;18.89;50.23;98994.25;5106301;27;20035;-75
2022/10/14 02:22:34;;;;;;;16.92;11.18;;;18.80;89.10;;;18.91;50.17;98995.56;5075484;27;20041;-75
2022/10/14 02:25:32;;;;;;;16.50;10.43;;;18.80;88.90;;;18.89;50.21;98981.31;5123498;27;20040;-75
2022/10/14 02:27:59;;;;;;;15.32;10.43;;;18.80;88.90;;;18.91;50.24;98987.31;5100286;27;20032;-75
2022/10/14 02:30:28;;;;;;;16.45;9.95;;;18.80;88.90;;;18.89;50.17;98980.50;5092632;27;20080;-75
2022/10/14 02:32:54;;;;;;;19.38;11.48;;;18.80;89.10;;;18.90;50.39;98982.91;5085958;27;20165;-76
2022/10/14 02:35:26;;;;;;;15.40;10.85;;;18.80;89.80;;;18.92;50.24;98985.34;5077476;27;20039;-75
2022/10/14 02:37:52;;;;;;;17.08;10.07;;;18.80;89.00;;;18.89;50.24;98980.50;5060077;28;20168;-76
2022/10/14 02:40:25;;;;;;;14.73;10.05;;;18.80;89.20;;;18.87;50.35;98976.13;5105432;28;20039;-75
2022/10/14 02:42:51;;;;;;;17.00;10.60;;;18.80;89.20;;;18.91;50.25;98978.25;5080844;27;20044;-75
2022/10/14 02:45:17;;;;;;;18.55;10.80;;;18.80;88.90;;;18.87;50.14;98973.38;5070991;27;20036;-75
2022/10/14 02:47:43;;;;;;;16.33;10.95;;;18.80;88.90;;;18.86;50.34;98979.22;5079677;27;20083;-75
2022/10/14 02:50:10;;;;;;;15.82;10.18;;;18.80;88.90;;;18.85;50.32;98972.94;5110796;27;20609;-75
2022/10/14 02:52:36;;;;;;;22.63;11.40;;;18.80;89.00;;;18.90;50.30;98969.19;5098856;27;20039;-75
2022/10/14 02:55:02;;;;;;;19.63;10.80;;;18.80;88.90;;;18.90;50.31;98973.88;5086340;27;20046;-75
2022/10/14 02:57:28;;;;;;;13.05;10.15;;;18.80;88.90;;;18.89;50.28;98969.53;5089522;27;20377;-75
2022/10/14 02:59:54;;;;;;;18.58;11.40;;;18.80;88.90;;;18.90;50.42;98969.19;5104221;28;20050;-75
2022/10/14 03:02:20;;;;;;;14.70;10.25;;;18.80;88.90;;;18.88;50.08;98968.72;5102273;27;20060;-75
2022/10/14 03:04:46;;;;;;;18.17;10.63;;;18.80;88.90;;;18.91;50.17;98975.50;5089322;27;20043;-75
2022/10/14 03:07:13;;;;;;;12.40;8.77;;;18.70;88.90;;;18.89;50.16;98972.28;5123614;27;20413;-75
2022/10/14 03:09:39;;;;;;;16.70;11.20;;;18.70;89.10;;;18.87;50.18;98967.88;5101398;27;20122;-75
2022/10/14 03:12:05;;;;;;;17.55;10.90;;;18.70;89.30;;;18.87;50.11;98972.59;5086934;27;20047;-75
2022/10/14 03:14:32;;;;;;;19.25;10.07;;;18.70;88.80;;;18.86;50.40;98974.53;5107113;27;20032;-75
2022/10/14 03:16:58;;;;;;;15.73;10.02;;;18.70;88.80;;;18.87;50.20;98970.63;5070472;27;20118;-75
2022/10/14 03:19:24;;;;;;;16.02;10.70;;;18.70;88.80;;;18.89;50.19;98973.06;5100901;27;20490;-75
2022/10/14 03:21:50;;;;;;;17.95;10.82;;;18.70;88.80;;;18.86;50.15;98973.72;5075530;27;20088;-75
2022/10/14 03:24:17;;;;;;;16.08;9.43;;;18.70;89.10;;;18.84;50.21;98968.53;5072477;27;20036;-75
2022/10/14 03:26:43;;;;;;;15.80;10.85;;;18.70;89.00;;;18.86;50.13;98974.53;5104843;27;20045;-75
2022/10/14 03:29:09;;;;;;;17.10;10.45;;;18.80;88.90;;;18.83;50.31;98974.38;5088330;27;20463;-75
2022/10/14 03:31:35;;;;;;;13.85;9.80;;;18.80;88.90;;;18.84;50.24;98965.00;5060282;27;20039;-75
2022/10/14 03:34:02;;;;;;;15.38;10.18;;;18.70;88.80;;;18.88;50.10;98963.22;5088581;27;20431;-75
2022/10/14 03:36:28;;;;;;;12.43;9.57;;;18.70;88.80;;;18.81;50.29;98966.44;5103063;27;20095;-75
2022/10/14 03:38:54;;;;;;;13.55;9.60;;;18.80;89.20;;;18.85;50.25;98961.09;5087192;27;20428;-75
2022/10/14 03:41:21;;;;;;;15.48;9.88;;;18.70;88.80;;;18.86;50.20;98958.03;5118031;27;20441;-75
2022/10/14 03:43:47;;;;;;;18.45;10.50;;;18.70;88.80;;;18.85;50.12;98955.59;5087269;27;20043;-75
2022/10/14 03:46:13;;;;;;;13.25;9.25;;;18.70;88.80;;;18.85;50.40;98956.44;5071221;27;20040;-75
2022/10/14 03:48:39;;;;;;;13.80;9.25;;;18.70;88.80;;;18.81;50.31;98960.16;5089158;27;20157;-75
2022/10/14 03:51:05;;;;;;;15.73;10.57;;;18.70;88.80;;;18.82;50.15;98951.56;5109758;27;20047;-75
2022/10/14 03:53:31;;;;;;;15.43;10.05;;;18.70;88.80;;;18.81;50.12;98949.97;5068622;27;20050;-75
2022/10/14 03:55:58;;;;;;;13.65;8.77;;;18.70;88.80;;;18.81;49.64;98947.22;5086359;27;20375;-75
2022/10/14 03:58:24;;;;;;;17.35;10.38;;;18.70;88.70;;;18.80;49.64;98953.84;5091409;27;20046;-75
2022/10/14 04:00:50;;;;;;;16.50;9.93;;;18.70;88.50;;;18.78;49.72;98945.13;5102940;27;20438;-75
2022/10/14 04:03:16;;;;;;;18.65;10.93;;;18.60;88.40;;;18.77;49.78;98943.47;5103200;27;20055;-75
2022/10/14 04:05:42;;;;;;;16.65;10.63;;;18.70;88.80;;;18.76;50.01;98936.38;5107947;27;20047;-74
2022/10/14 04:08:08;;;;;;;12.93;9.63;;;18.60;88.70;;;18.82;50.05;98939.78;5074971;27;20114;-74
2022/10/14 04:10:34;;;;;;;14.05;9.85;;;18.70;88.80;;;18.80;49.70;98940.13;5086451;27;20046;-74
2022/10/14 04:13:00;;;;;;;15.35;11.07;;;18.70;88.50;;;18.78;49.60;98936.88;5103397;27;20047;-74
2022/10/14 04:15:26;;;;;;;13.18;9.52;;;18.70;88.40;;;18.79;49.49;98937.69;5104117;27;20100;-74
2022/10/14 04:17:52;;;;;;;14.90;10.50;;;18.60;88.30;;;18.74;49.40;98944.09;5085858;27;20955;-74
2022/10/14 04:20:18;;;;;;;15.95;10.43;;;18.60;88.20;;;18.77;49.90;98945.44;5101211;27;20044;-75
2022/10/14 04:22:44;;;;;;;13.93;9.32;;;18.60;88.70;;;18.77;49.72;98938.00;5086011;27;20098;-74
2022/10/14 04:25:10;;;;;;;12.55;9.48;;;18.60;88.70;;;18.78;49.82;98931.38;5085862;27;20040;-74
2022/10/14 04:27:36;;;;;;;17.85;10.43;;;18.70;88.70;;;18.72;49.43;98934.56;5060462;27;20034;-75
2022/10/14 04:30:04;;;;;;;18.48;10.93;;;18.60;88.10;;;18.71;49.53;98931.03;5107529;27;20512;-74
2022/10/14 04:32:30;;;;;;;18.92;10.18;;;18.60;88.10;;;18.74;49.27;98935.06;5087886;27;20050;-74
2022/10/14 04:34:56;;;;;;;15.38;10.85;;;18.60;88.10;;;18.75;49.47;98940.28;5105245;28;20474;-74
2022/10/14 04:37:22;;;;;;;15.57;10.10;;;18.60;88.10;;;18.75;49.58;98936.66;5090502;27;20114;-74
2022/10/14 04:39:48;;;;;;;17.08;9.32;;;18.60;88.40;;;18.70;49.97;98934.09;5101810;28;20108;-74
2022/10/14 04:42:14;;;;;;;15.25;10.07;;;18.70;88.70;;;18.75;49.54;98931.16;5122923;27;20043;-74
2022/10/14 04:44:41;;;;;;;14.35;9.32;;;18.60;88.20;;;18.78;49.33;98927.84;5116248;28;20103;-74
2022/10/14 04:47:07;;;;;;;14.25;9.75;;;18.60;87.80;;;18.76;49.29;98925.41;5109495;28;20039;-74
2022/10/14 04:49:33;;;;;;;18.58;10.60;;;18.60;87.90;;;18.72;49.18;98927.13;5086125;28;20072;-75
2022/10/14 04:52:00;;;;;;;14.73;10.10;;;18.60;87.90;;;18.71;49.44;98928.28;5092246;28;20035;-75
2022/10/14 04:54:25;;;;;;;14.68;10.23;;;18.60;89.10;;;18.68;49.68;98926.19;5088440;28;20046;-75
2022/10/14 04:56:52;;;;;;;14.90;8.88;;;18.60;88.50;;;18.74;49.83;98926.81;5084546;28;20416;-74
2022/10/14 04:59:17;;;;;;;14.32;9.43;;;18.70;88.40;;;18.73;49.26;98920.53;5104487;28;20039;-75
2022/10/14 05:01:43;;;;;;;13.10;9.32;;;18.60;87.70;;;18.70;49.29;98921.19;5099909;28;20122;-74
2022/10/14 05:04:10;;;;;;;13.32;9.77;;;18.60;87.60;;;18.69;49.57;98918.75;5073356;27;20047;-74
2022/10/14 05:06:36;;;;;;;16.60;9.30;;;18.60;87.70;;;18.73;48.97;98920.53;5094242;27;20046;-76
2022/10/14 05:09:04;;;;;;;15.70;9.63;;;18.50;87.70;;;18.72;49.47;98929.88;5102523;27;20470;-76
2022/10/14 05:11:30;;;;;;;14.82;10.20;;;18.60;88.10;;;18.72;49.60;98921.63;5071101;27;20032;-76
2022/10/14 05:13:58;;;;;;;12.23;9.30;;;18.60;88.30;;;18.71;49.54;98922.78;5084618;27;20046;-76
2022/10/14 05:16:24;;;;;;;12.00;8.50;;;18.60;88.10;;;18.74;49.27;98915.81;5089220;27;20051;-76
2022/10/14 05:18:50;;;;;;;16.48;10.43;;;18.60;87.80;;;18.74;48.96;98916.63;5086421;27;20051;-75
2022/10/14 05:21:16;;;;;;;14.77;10.35;;;18.60;87.50;;;18.71;49.05;98914.53;5082977;27;20039;-76
2022/10/14 05:23:42;;;;;;;19.63;10.80;;;18.60;87.50;;;18.73;49.20;98919.72;5077680;27;20049;-77
2022/10/14 05:26:09;;;;;;;14.52;9.68;;;18.60;87.80;;;18.77;49.24;98917.94;5083207;27;20489;-78
2022/10/14 05:28:39;;;;;;;17.52;11.30;;;18.60;88.00;;;18.77;49.43;98910.50;5100173;27;20061;-79
2022/10/14 05:31:05;;;;;;;12.85;9.40;;;18.60;88.10;;;18.76;48.99;98913.59;5093300;27;20097;-76
2022/10/14 05:33:31;;;;;;;13.82;9.65;;;18.60;87.70;;;18.74;49.01;98921.31;5086793;27;20114;-76
2022/10/14 05:35:58;;;;;;;12.98;9.55;;;18.60;87.60;;;18.75;48.98;98914.69;5078008;27;20383;-76
2022/10/14 05:38:24;;;;;;;14.70;10.27;;;18.60;87.50;;;18.78;48.66;98919.59;5078633;27;20545;-76
2022/10/14 05:40:54;;;;;;;15.32;10.18;;;18.60;87.50;;;18.76;49.16;98914.41;5083476;27;20036;-76
2022/10/14 05:43:20;;;;;;;15.13;10.00;;;18.60;88.00;;;18.74;49.25;98911.13;5057238;27;20036;-76
2022/10/14 05:45:47;;;;;;;14.30;10.30;;;18.60;87.80;;;18.78;49.25;98912.16;5076661;27;20194;-76
2022/10/14 05:48:13;;;;;;;15.00;9.50;;;18.70;87.80;;;18.76;49.00;98922.66;5086227;27;20092;-76
2022/10/14 05:50:39;;;;;;;16.02;10.13;;;18.60;87.50;;;18.78;48.95;98916.84;5090446;27;20521;-77
2022/10/14 05:53:05;;;;;;;13.45;9.48;;;18.60;87.40;;;18.80;49.01;98909.88;5082423;27;20035;-78
2022/10/14 05:55:31;;;;;;;12.43;8.90;;;18.60;87.60;;;18.84;48.92;98916.31;5100647;27;20053;-78
2022/10/14 05:57:57;;;;;;;10.55;8.25;;;18.70;87.60;;;18.85;48.78;98915.22;5106858;27;20039;-77
2022/10/14 06:00:23;;;;;;;10.80;8.82;;;18.70;87.50;;;18.86;48.85;98918.75;5078125;27;20066;-78
2022/10/14 06:02:49;;;;;;;14.85;9.13;;;18.70;87.30;;;18.90;49.08;98916.16;5090077;27;20592;-78
2022/10/14 06:05:16;;;;;;;13.30;9.27;;;18.70;87.50;;;18.91;48.99;98915.03;5058672;27;20119;-77
2022/10/14 06:07:41;;;;;;;14.48;9.43;;;18.80;87.70;;;18.93;49.19;98921.00;5075238;27;20043;-78
2022/10/14 06:10:09;;;;;;;15.90;9.48;;;18.80;87.80;;;18.93;49.20;98915.50;5090551;27;20092;-78
2022/10/14 06:12:36;;;;;;;16.75;10.07;;;18.80;87.60;;;18.97;49.04;98920.03;5093815;27;20075;-78
2022/10/14 06:15:02;;;;;;;12.48;9.50;;;18.90;87.60;;;18.97;48.88;98920.03;5097272;27;20054;-78
2022/10/14 06:17:29;;;;;;;11.35;9.07;;;18.80;87.50;;;19.00;48.77;98918.56;5118511;27;20646;-77
2022/10/14 06:19:55;;;;;;;11.88;8.90;;;18.80;87.40;;;19.03;48.88;98921.47;5086337;27;20046;-77
2022/10/14 06:22:21;;;;;;;12.27;8.07;;;18.90;87.90;;;19.04;49.19;98916.78;5086607;28;20039;-76
2022/10/14 06:24:47;;;;;;;13.75;8.63;;;18.90;87.90;;;19.07;49.00;98918.88;5100425;27;20047;-78
2022/10/14 06:27:13;;;;;;;11.93;7.97;;;18.90;87.90;;;19.11;48.82;98919.84;5089333;27;20050;-76
2022/10/14 06:29:39;;;;;;;13.93;8.80;;;19.00;87.80;;;19.13;49.12;98917.56;5099776;27;20041;-76
2022/10/14 06:32:06;;;;;;;12.10;8.75;;;19.00;87.80;;;19.14;49.06;98915.63;5087560;27;20477;-76
2022/10/14 06:34:32;;;;;;;12.55;8.95;;;19.00;87.60;;;19.19;48.74;98921.75;5106459;27;20506;-76
2022/10/14 06:36:59;;;;;;;12.05;7.68;;;19.00;87.70;;;19.22;48.94;98923.84;5091042;27;20049;-76
2022/10/14 06:39:25;;;;;;;13.70;8.70;;;19.00;88.10;;;19.23;48.97;98925.47;5090608;27;20043;-76
2022/10/14 06:41:51;;;;;;;15.13;9.45;;;19.00;88.10;;;19.29;48.74;98926.91;5090205;27;20091;-76
2022/10/14 06:44:17;;;;;;;16.00;9.55;;;19.10;88.00;;;19.32;48.93;98930.16;5068975;27;20047;-76
2022/10/14 06:46:43;;;;;;;11.23;8.88;;;19.10;87.90;;;19.36;48.82;98925.59;5083625;27;20088;-76
2022/10/14 06:49:09;;;;;;;13.07;8.23;;;19.10;87.80;;;19.40;48.61;98923.81;5083053;27;20577;-76
2022/10/14 06:51:37;;;;;;;10.65;8.10;;;19.10;87.70;;;19.39;48.78;98922.19;5099868;27;20047;-76
2022/10/14 06:54:03;;;;;;;11.10;8.52;;;19.10;87.80;;;19.40;48.89;98923.81;5086722;27;20039;-76
2022/10/14 06:56:29;;;;;;;17.17;9.63;;;19.20;88.00;;;19.41;48.85;98920.72;5066815;27;20039;-76
2022/10/14 06:58:55;;;;;;;13.80;9.50;;;19.20;88.10;;;19.44;48.89;98924.78;5072193;27;20176;-76
2022/10/14 07:01:22;;;;;;;13.43;8.32;;;19.20;88.00;;;19.46;48.85;98911.47;5089080;27;20046;-76
2022/10/14 07:03:48;;;;;;;12.63;8.43;;;19.20;87.90;;;19.48;48.65;98923.75;5085701;28;20060;-77
2022/10/14 07:06:14;;;;;;;11.63;7.43;;;19.20;87.90;;;19.49;48.68;98917.13;5086511;27;20509;-76
2022/10/14 07:08:41;;;;;;;13.00;8.77;;;19.20;87.90;;;19.54;48.76;98916.16;5091011;27;20391;-76
2022/10/14 07:11:07;;;;;;;12.68;9.23;;;19.30;88.00;;;19.62;48.72;98915.31;5081491;27;20042;-76
2022/10/14 07:13:33;;;;;;;12.07;8.48;;;19.30;88.10;;;19.60;48.91;98914.81;5098435;27;20043;-76
2022/10/14 07:15:59;;;;;;;14.70;8.80;;;19.40;88.10;;;19.63;48.84;98914.16;5085795;27;20051;-77
2022/10/14 07:18:25;;;;;;;14.27;7.60;;;19.40;88.00;;;19.67;48.68;98919.84;5070662;27;20398;-77
2022/10/14 07:20:51;;;;;;;9.52;7.57;;;19.40;87.90;;;19.73;48.49;98918.50;5068832;27;20050;-76
2022/10/14 07:23:17;;;;;;;8.55;7.63;;;19.50;87.90;;;19.74;48.41;98922.88;5083184;27;20043;-77
2022/10/14 07:25:43;;;;;;;11.25;8.85;;;19.50;87.90;;;19.75;48.62;98927.25;5084136;27;20934;-77
2022/10/14 07:28:09;;;;;;;10.88;8.20;;;19.50;88.00;;;19.76;48.75;98926.09;5097532;27;20522;-77
2022/10/14 07:30:35;;;;;;;13.30;7.85;;;19.50;88.00;;;19.76;48.80;98922.53;5099206;27;20122;-77
2022/10/14 07:33:01;;;;;;;13.38;9.35;;;19.50;87.90;;;19.76;48.46;98920.59;5070040;27;20043;-77
2022/10/14 07:35:27;;;;;;;13.65;8.63;;;19.50;88.00;;;19.79;48.58;98919.94;5084622;27;20061;-77
2022/10/14 07:37:54;;;;;;;13.07;8.85;;;19.60;87.90;;;19.80;48.66;98926.25;5088626;27;20047;-77
2022/10/14 07:40:20;;;;;;;14.13;8.00;;;19.60;88.00;;;19.80;48.77;98918.00;5071730;27;20135;-77
2022/10/14 07:42:46;;;;;;;10.05;7.80;;;19.60;88.00;;;19.79;48.74;98922.69;5089003;27;20405;-77
2022/10/14 07:45:15;;;;;;;12.05;8.02;;;19.60;88.00;;;19.82;48.97;98913.78;5070677;27;20047;-77
2022/10/14 07:47:46;;;;;;;15.73;7.97;;;19.60;88.20;;;19.81;48.87;98927.84;5089517;27;20070;-77
2022/10/14 07:50:12;;;;;;;12.70;8.00;;;19.60;88.10;;;19.83;48.77;98928.34;5081940;27;20039;-77
2022/10/14 07:52:39;;;;;;;12.13;8.15;;;19.70;88.10;;;19.83;49.03;98926.38;5098112;27;20168;-77
2022/10/14 07:55:05;;;;;;;10.07;7.85;;;19.70;88.40;;;19.83;48.94;98925.59;5086151;28;20340;-77
2022/10/14 07:57:31;;;;;;;9.90;7.70;;;19.70;88.20;;;19.83;49.08;98920.88;5085741;27;20130;-76
2022/10/14 07:59:58;;;;;;;13.82;9.30;;;19.70;88.40;;;19.87;49.02;98923.78;5086937;27;20040;-77
2022/10/14 08:02:24;;;;;;;10.57;8.15;;;19.70;88.50;;;19.89;49.11;98913.25;5100656;27;20134;-76
2022/10/14 08:04:54;;;;;;;16.17;9.07;;;19.80;88.40;;;19.90;49.19;98917.63;5085661;27;20058;-77
2022/10/14 08:07:21;;;;;;;14.48;8.40;;;19.80;88.30;;;19.89;48.87;98922.28;5082668;27;20043;-76
2022/10/14 08:09:47;;;;;;;11.15;7.57;;;19.80;88.20;;;19.89;48.94;98916.00;5055910;27;20078;-76
2022/10/14 08:12:13;;;;;;;10.32;7.63;;;19.80;88.10;;;19.93;49.12;98920.50;5062056;27;20071;-77
2022/10/14 08:14:39;;;;;;;12.75;8.63;;;19.80;88.20;;;19.97;49.02;98925.34;5106177;27;20453;-77
2022/10/14 08:17:05;;;;;;;12.02;8.00;;;19.80;88.20;;;19.97;49.02;98923.38;5056956;27;20045;-77
2022/10/14 08:19:33;;;;;;;10.75;8.15;;;19.90;88.30;;;19.99;48.81;98915.59;5082879;28;20059;-77
2022/10/14 08:21:59;;;;;;;12.75;9.05;;;19.90;88.20;;;20.02;48.86;98920.44;5088580;27;20035;-77
2022/10/14 08:24:25;;;;;;;9.85;7.05;;;19.90;88.10;;;20.06;48.78;98918.66;5100142;27;20452;-76
2022/10/14 08:26:53;;;;;;;11.35;7.60;;;19.90;88.10;;;20.12;48.65;98922.00;5086018;28;20039;-77
2022/10/14 08:29:22;;;;;;;12.57;9.05;;;19.90;87.90;;;20.13;48.72;98926.38;5073622;28;20118;-77
2022/10/14 08:31:50;;;;;;;12.10;8.10;;;19.90;88.00;;;20.14;48.58;98923.28;5087019;28;20040;-77
2022/10/14 08:34:19;;;;;;;12.48;7.38;;;20.00;88.20;;;20.19;48.60;98922.28;5069626;27;20367;-76
2022/10/14 08:36:47;;;;;;;11.10;7.97;;;20.00;88.10;;;20.19;48.67;98915.97;5098790;27;20040;-76
2022/10/14 08:39:16;;;;;;;11.30;7.70;;;20.00;88.00;;;20.21;48.55;98921.97;5081766;28;20039;-76
2022/10/14 08:42:07;;;;;;;12.48;8.43;;;20.00;87.90;;;20.27;48.44;98915.09;5071821;27;20036;-76
2022/10/14 08:45:02;;;;;;;12.88;7.88;;;20.10;87.80;;;20.30;48.55;98918.00;5086267;28;20456;-76
2022/10/14 08:47:34;;;;;;;10.80;8.02;;;20.10;87.80;;;20.35;48.35;98911.47;5077935;28;20058;-76
2022/10/14 08:50:02;;;;;;;11.38;8.45;;;20.20;87.90;;;20.37;48.42;98912.75;5072032;28;20476;-76
2022/10/14 08:52:40;;;;;;;16.98;8.20;;;20.20;88.00;;;20.38;48.24;98908.06;5100843;28;20039;-76
2022/10/14 08:55:38;;;;;;;11.30;8.35;;;20.20;87.90;;;20.40;48.45;98905.75;5086064;28;20126;-76
2022/10/14 08:58:30;;;;;;;15.25;7.15;;;20.20;88.10;;;20.44;48.31;98906.72;5114132;28;20047;-76
2022/10/14 09:01:02;;;;;;;11.75;7.97;;;20.30;88.20;;;20.47;48.45;98908.00;5070993;28;20584;-76
2022/10/14 09:03:32;;;;;;;14.32;7.75;;;20.30;88.00;;;20.49;48.09;98906.50;5088638;28;20047;-76
2022/10/14 09:06:03;;;;;;;14.43;8.98;;;20.30;88.00;;;20.51;48.46;98904.22;5086570;28;20069;-76
2022/10/14 09:08:42;;;;;;;15.13;7.80;;;20.30;88.00;;;20.52;48.54;98902.28;5070471;28;20066;-77
2022/10/14 09:11:14;;;;;;;10.73;7.70;;;20.30;87.70;;;20.54;48.26;98908.25;5071149;28;20126;-77
2022/10/14 09:13:43;;;;;;;14.27;7.15;;;20.30;87.60;;;20.57;48.35;98907.59;5088092;28;20501;-77
2022/10/14 09:16:20;;;;;;;12.50;7.85;;;20.40;87.60;;;20.60;48.10;98899.47;5068256;28;20048;-76
2022/10/14 09:18:56;;;;;;;11.15;7.05;;;20.40;87.60;;;20.64;48.00;98907.06;5071883;28;20117;-76
2022/10/14 09:21:38;;;;;;;12.52;7.20;;;20.40;87.50;;;20.61;48.30;98900.28;5087119;28;20110;-76
2022/10/14 09:24:43;;;;;;;12.77;7.28;;;20.40;87.60;;;20.67;48.24;98900.88;5101420;28;20043;-76
2022/10/14 09:27:20;;;;;;;11.65;7.57;;;20.40;87.70;;;20.65;47.97;98903.97;5081722;28;20486;-76
2022/10/14 09:30:09;;;;;;;11.55;7.72;;;20.50;87.60;;;20.63;48.16;98905.44;5068023;28;20479;-77
2022/10/14 09:32:43;;;;;;;10.43;7.30;;;20.50;87.50;;;20.67;47.93;98904.44;5072822;28;20039;-76
2022/10/14 09:35:34;;;;;;;11.30;7.65;;;20.50;87.30;;;20.64;48.21;98907.88;5104963;28;20383;-76
2022/10/14 09:38:00;;;;;;;12.38;7.75;;;20.50;87.40;;;20.69;48.10;98906.88;5079857;28;20055;-76
2022/10/14 09:40:35;;;;;;;11.50;7.82;;;20.60;87.60;;;20.70;48.13;98908.47;5080450;28;20521;-77
2022/10/14 09:43:07;;;;;;;10.82;7.13;;;20.50;87.30;;;20.69;48.08;98917.91;5098368;28;20047;-76
2022/10/14 09:45:54;;;;;;;10.20;7.28;;;20.60;87.30;;;20.68;48.12;98910.75;5114961;28;20088;-76
2022/10/14 09:48:42;;;;;;;12.55;7.93;;;20.60;87.20;;;20.72;48.13;98906.19;5111022;28;20031;-77
2022/10/14 09:51:17;;;;;;;9.90;7.43;;;20.60;87.00;;;20.68;48.12;98906.03;5121958;27;20322;-77
2022/10/14 09:53:47;;;;;;;11.70;7.28;;;20.60;87.00;;;20.76;47.98;98915.38;5105098;27;20045;-77
2022/10/14 09:56:14;;;;;;;9.90;7.68;;;20.70;87.40;;;20.81;47.69;98909.66;5079191;27;20047;-77
2022/10/14 09:58:56;;;;;;;11.00;7.78;;;20.70;87.10;;;20.89;47.62;98903.25;5102617;27;20046;-76
2022/10/14 10:01:47;;;;;;;9.00;7.00;;;20.70;87.20;;;20.86;47.58;98900.38;5090167;27;20060;-77
2022/10/14 10:04:46;;;;;;;9.77;7.53;;;20.70;87.10;;;20.90;47.85;98904.06;5078575;27;20147;-76
2022/10/14 10:07:33;;;;;;;9.18;7.43;;;20.70;87.30;;;20.87;48.12;98905.56;5073292;27;20398;-76
2022/10/14 10:10:03;;;;;;;13.35;8.25;;;20.80;87.50;;;20.94;47.82;98900.28;5107570;27;20514;-76
2022/10/14 10:12:32;;;;;;;27.05;8.10;;;20.80;87.50;;;20.95;47.69;98901.91;5086613;27;20067;-76
2022/10/14 10:15:04;;;;;;;12.40;7.97;;;20.80;87.50;;;20.94;47.89;98893.94;5090269;27;20118;-76
2022/10/14 10:17:37;;;;;;;9.65;6.80;;;20.80;87.30;;;21.00;47.58;98893.41;5084376;27;20035;-76
2022/10/14 10:20:27;;;;;;;12.98;7.63;;;20.80;87.20;;;21.00;47.63;98893.41;5088628;27;20455;-76
2022/10/14 10:22:57;;;;;;;10.63;7.25;;;20.80;87.20;;;21.04;47.67;98888.03;5085149;27;20054;-76
2022/10/14 10:25:27;;;;;;;10.35;7.40;;;20.80;87.40;;;21.00;47.82;98889.84;5064705;27;20491;-76